sensor_id;sensor_type;location;lat;lon;timestamp;temperature;humidity
15048;DHT22;7621;52.350;13.308;2022-12-07T17:36:09;3.80;99.90
15048;DHT22;7621;52.350;13.308;2022-12-07T17:38:34;3.80;99.90
15048;DHT22;7621;52.350;13.308;2022-12-07T17:41:05;3.80;99.90
15048;DHT22;7621;52.350;13.308;2022-12-07T17:43:32;3.80;99.90
15048;DHT22;7621;52.350;13.308;2022-12-07T17:45:58;3.80;99.90
15048;DHT22;7621;52.350;13.308;2022-12-07T17:48:23;3.80;99.90
15048;DHT22;7621;52.350;13.308;2022-12-07T17:50:50;3.80;99.90
15048;DHT22;7621;52.350;13.308;2022-12-07T17:53:34;3.70;99.90
15048;DHT22;7621;52.350;13.308;2022-12-07T17:55:59;3.70;99.90
15048;DHT22;7621;52.350;13.308;2022-12-07T17:58:25;3.70;99.90
15048;DHT22;7621;52.350;13.308;2022-12-07T18:00:50;3.70;99.90
15048;DHT22;7621;52.350;13.308;2022-12-07T18:03:16;3.70;99.90
15048;DHT22;7621;52.350;13.308;2022-12-07T18:05:42;3.60;99.90
15048;DHT22;7621;52.350;13.308;2022-12-07T18:08:08;3.60;99.90
15048;DHT22;7621;52.350;13.308;2022-12-07T18:10:34;3.60;99.90
15048;DHT22;7621;52.350;13.308;2022-12-07T18:12:59;3.50;99.90
15048;DHT22;7621;52.350;13.308;2022-12-07T18:15:43;3.50;99.90
15048;DHT22;7621;52.350;13.308;2022-12-07T18:18:09;3.50;99.90
15048;DHT22;7621;52.350;13.308;2022-12-07T18:20:34;3.40;99.90
15048;DHT22;7621;52.350;13.308;2022-12-07T18:23:00;3.40;99.90
15048;DHT22;7621;52.350;13.308;2022-12-07T18:25:25;3.40;99.90
15048;DHT22;7621;52.350;13.308;2022-12-07T18:27:51;3.30;99.90
15048;DHT22;7621;52.350;13.308;2022-12-07T18:30:17;3.30;99.90
15048;DHT22;7621;52.350;13.308;2022-12-07T18:32:42;3.20;99.90
15048;DHT22;7621;52.350;13.308;2022-12-07T18:35:08;3.30;99.90
15048;DHT22;7621;52.350;13.308;2022-12-07T18:37:33;3.30;99.90
15048;DHT22;7621;52.350;13.308;2022-12-07T18:39:59;3.20;99.90
15048;DHT22;7621;52.350;13.308;2022-12-07T18:42:25;3.20;99.90
15048;DHT22;7621;52.350;13.308;2022-12-07T18:44:50;3.20;99.90
15048;DHT22;7621;52.350;13.308;2022-12-07T18:47:16;3.20;99.90
15048;DHT22;7621;52.350;13.308;2022-12-07T18:49:42;3.10;99.90
15048;DHT22;7621;52.350;13.308;2022-12-07T18:52:07;3.10;99.90
15048;DHT22;7621;52.350;13.308;2022-12-07T18:54:33;3.10;99.90
15048;DHT22;7621;52.350;13.308;2022-12-07T18:56:58;3.10;99.90
15048;DHT22;7621;52.350;13.308;2022-12-07T18:59:24;3.10;99.90
15048;DHT22;7621;52.350;13.308;2022-12-07T19:02:09;3.10;99.90
15048;DHT22;7621;52.350;13.308;2022-12-07T19:04:35;3.00;99.90
15048;DHT22;7621;52.350;13.308;2022-12-07T19:07:00;3.00;99.90
15048;DHT22;7621;52.350;13.308;2022-12-07T19:09:26;3.00;99.90
15048;DHT22;7621;52.350;13.308;2022-12-07T19:11:51;3.00;99.90
15048;DHT22;7621;52.350;13.308;2022-12-07T19:14:34;3.00;99.90
15048;DHT22;7621;52.350;13.308;2022-12-07T19:17:02;3.00;99.90
15048;DHT22;7621;52.350;13.308;2022-12-07T19:19:34;3.00;99.90
15048;DHT22;7621;52.350;13.308;2022-12-07T19:22:00;3.00;99.90
15048;DHT22;7621;52.350;13.308;2022-12-07T19:24:27;3.00;99.90
15048;DHT22;7621;52.350;13.308;2022-12-07T19:26:53;3.00;99.90
15048;DHT22;7621;52.350;13.308;2022-12-07T19:29:19;2.90;99.90
15048;DHT22;7621;52.350;13.308;2022-12-07T19:31:45;2.90;99.90
15048;DHT22;7621;52.350;13.308;2022-12-07T19:34:12;2.90;99.90
15048;DHT22;7621;52.350;13.308;2022-12-07T19:36:40;2.80;99.90
15048;DHT22;7621;52.350;13.308;2022-12-07T19:39:06;2.80;99.90
15048;DHT22;7621;52.350;13.308;2022-12-07T19:41:32;2.90;99.90
15048;DHT22;7621;52.350;13.308;2022-12-07T19:43:59;2.80;99.90
15048;DHT22;7621;52.350;13.308;2022-12-07T19:46:25;2.80;99.90
15048;DHT22;7621;52.350;13.308;2022-12-07T19:48:52;2.80;99.90
15048;DHT22;7621;52.350;13.308;2022-12-07T19:51:18;2.80;99.90
15048;DHT22;7621;52.350;13.308;2022-12-07T19:53:44;2.80;99.90
15048;DHT22;7621;52.350;13.308;2022-12-07T19:56:14;2.80;99.90
15048;DHT22;7621;52.350;13.308;2022-12-07T19:58:40;2.80;99.90
15048;DHT22;7621;52.350;13.308;2022-12-07T20:01:05;2.80;99.90
15048;DHT22;7621;52.350;13.308;2022-12-07T20:03:31;2.80;99.90
15048;DHT22;7621;52.350;13.308;2022-12-07T20:05:57;2.70;99.90
15048;DHT22;7621;52.350;13.308;2022-12-07T20:08:23;2.80;99.90
15048;DHT22;7621;52.350;13.308;2022-12-07T20:10:49;2.80;99.90
15048;DHT22;7621;52.350;13.308;2022-12-07T20:13:16;2.80;99.90
15048;DHT22;7621;52.350;13.308;2022-12-07T20:15:57;2.80;99.90
15048;DHT22;7621;52.350;13.308;2022-12-07T20:18:22;2.80;99.90
15048;DHT22;7621;52.350;13.308;2022-12-07T20:20:55;2.80;99.90
15048;DHT22;7621;52.350;13.308;2022-12-07T20:23:22;2.80;99.90
15048;DHT22;7621;52.350;13.308;2022-12-07T20:25:48;2.80;99.90
15048;DHT22;7621;52.350;13.308;2022-12-07T20:28:13;2.80;99.90
15048;DHT22;7621;52.350;13.308;2022-12-07T20:30:48;2.80;99.90
15048;DHT22;7621;52.350;13.308;2022-12-07T20:33:15;2.80;99.90
15048;DHT22;7621;52.350;13.308;2022-12-07T20:35:42;2.80;99.90
15048;DHT22;7621;52.350;13.308;2022-12-07T20:38:08;2.70;99.90
15048;DHT22;7621;52.350;13.308;2022-12-07T20:40:34;2.70;99.90
15048;DHT22;7621;52.350;13.308;2022-12-07T20:43:00;2.70;99.90
15048;DHT22;7621;52.350;13.308;2022-12-07T20:45:26;2.70;99.90
15048;DHT22;7621;52.350;13.308;2022-12-07T20:47:51;2.60;99.90
15048;DHT22;7621;52.350;13.308;2022-12-07T20:50:17;2.60;99.90
15048;DHT22;7621;52.350;13.308;2022-12-07T20:52:42;2.60;99.90
15048;DHT22;7621;52.350;13.308;2022-12-07T20:55:08;2.60;99.90
15048;DHT22;7621;52.350;13.308;2022-12-07T20:57:34;2.50;99.90
15048;DHT22;7621;52.350;13.308;2022-12-07T20:59:59;2.50;99.90
15048;DHT22;7621;52.350;13.308;2022-12-07T21:02:25;2.50;99.90
15048;DHT22;7621;52.350;13.308;2022-12-07T21:04:50;2.50;99.90
15048;DHT22;7621;52.350;13.308;2022-12-07T21:07:16;2.40;99.90
15048;DHT22;7621;52.350;13.308;2022-12-07T21:09:44;2.40;99.90
15048;DHT22;7621;52.350;13.308;2022-12-07T21:12:09;2.40;99.90
15048;DHT22;7621;52.350;13.308;2022-12-07T21:14:44;2.30;99.90
15048;DHT22;7621;52.350;13.308;2022-12-07T21:17:10;2.30;99.90
15048;DHT22;7621;52.350;13.308;2022-12-07T21:19:36;2.30;99.90
15048;DHT22;7621;52.350;13.308;2022-12-07T21:22:02;2.30;99.90
15048;DHT22;7621;52.350;13.308;2022-12-07T21:24:28;2.20;99.90
15048;DHT22;7621;52.350;13.308;2022-12-07T21:26:53;2.20;99.90
15048;DHT22;7621;52.350;13.308;2022-12-07T21:29:19;2.20;99.90
15048;DHT22;7621;52.350;13.308;2022-12-07T21:31:44;2.20;99.90
15048;DHT22;7621;52.350;13.308;2022-12-07T21:34:11;2.20;99.90
